createdAt,value
2022-12-01T00:01:40.700Z,16.58
2022-12-01T00:06:39.426Z,17.30
2022-12-01T00:11:38.939Z,16.63
2022-12-01T00:16:38.436Z,17.27
2022-12-01T00:21:37.242Z,15.43
2022-12-01T00:26:38.096Z,16.73
2022-12-01T00:31:37.140Z,17.45
2022-12-01T00:36:36.060Z,16.67
2022-12-01T00:41:34.842Z,16.35
2022-12-01T00:46:33.618Z,16.58
2022-12-01T00:51:32.445Z,14.88
2022-12-01T00:56:31.214Z,15.10
2022-12-01T01:01:30.180Z,14.95
2022-12-01T01:06:29.704Z,16.83
2022-12-01T01:11:28.540Z,15.48
2022-12-01T01:16:27.743Z,16.40
2022-12-01T01:21:27.544Z,16.23
2022-12-01T01:26:29.181Z,16.10
2022-12-01T01:31:29.938Z,14.95
2022-12-01T01:36:28.877Z,16.50
2022-12-01T01:41:28.914Z,15.45
2022-12-01T01:46:27.821Z,13.57
2022-12-01T01:51:46.896Z,15.00
2022-12-01T01:56:47.746Z,15.27
2022-12-01T02:01:52.048Z,13.40
2022-12-01T02:06:50.961Z,15.27
2022-12-01T02:12:24.375Z,17.35
2022-12-01T02:17:41.985Z,15.13
2022-12-01T02:23:16.256Z,16.13
2022-12-01T02:28:33.772Z,16.70
2022-12-01T02:33:35.714Z,15.07
2022-12-01T02:38:47.904Z,15.63
2022-12-01T02:44:04.983Z,15.05
2022-12-01T02:49:26.849Z,15.73
2022-12-01T02:54:29.924Z,15.90
2022-12-01T02:59:28.694Z,16.70
2022-12-01T03:04:59.809Z,15.40
2022-12-01T03:10:35.700Z,17.40
2022-12-01T03:15:35.807Z,14.23
2022-12-01T03:20:39.140Z,15.13
2022-12-01T03:25:41.999Z,16.42
2022-12-01T03:30:43.334Z,14.73
2022-12-01T03:35:54.168Z,14.68
2022-12-01T03:40:58.162Z,14.65
2022-12-01T03:46:19.206Z,16.27
2022-12-01T03:51:31.703Z,13.20
2022-12-01T03:56:44.574Z,15.57
2022-12-01T04:01:54.157Z,16.08
2022-12-01T04:06:53.344Z,15.57
2022-12-01T04:12:10.889Z,16.58
2022-12-01T04:17:09.608Z,17.67
2022-12-01T04:22:08.459Z,16.80
2022-12-01T04:27:07.171Z,17.00
2022-12-01T04:32:06.028Z,16.38
2022-12-01T04:37:06.142Z,14.80
2022-12-01T04:42:05.392Z,16.85
2022-12-01T04:47:05.722Z,15.75
2022-12-01T04:52:04.872Z,17.25
2022-12-01T04:57:03.781Z,17.10
2022-12-01T05:02:04.151Z,17.10
2022-12-01T05:07:03.082Z,17.35
2022-12-01T05:12:01.852Z,17.80
2022-12-01T05:17:00.703Z,17.75
2022-12-01T05:21:59.444Z,15.93
2022-12-01T05:26:58.185Z,7.68
2022-12-01T05:31:56.977Z,16.30
2022-12-01T05:36:55.784Z,14.32
2022-12-01T05:41:54.672Z,14.10
2022-12-01T05:46:53.575Z,11.77
2022-12-01T05:51:52.327Z,13.70
2022-12-01T05:56:51.105Z,18.88
2022-12-01T06:01:50.153Z,16.65
2022-12-01T06:06:49.203Z,17.05
2022-12-01T06:11:52.221Z,17.75
2022-12-01T06:16:51.380Z,16.42
2022-12-01T06:21:50.145Z,17.50
2022-12-01T06:26:49.395Z,15.50
2022-12-01T06:31:51.144Z,17.10
2022-12-01T06:36:50.154Z,14.35
2022-12-01T06:41:49.269Z,17.13
2022-12-01T06:46:52.769Z,16.25
2022-12-01T06:51:51.573Z,17.90
2022-12-01T06:56:50.406Z,18.10
2022-12-01T07:01:49.623Z,15.82
2022-12-01T07:06:48.513Z,15.23
2022-12-01T07:11:47.399Z,18.52
2022-12-01T07:16:46.252Z,22.10
2022-12-01T07:21:45.384Z,18.48
2022-12-01T07:26:44.771Z,18.33
2022-12-01T07:31:44.155Z,15.90
2022-12-01T07:36:42.993Z,20.20
2022-12-01T07:41:41.836Z,20.52
2022-12-01T07:46:40.606Z,18.40
2022-12-01T07:51:39.679Z,20.85
2022-12-01T07:56:38.452Z,20.25
2022-12-01T08:01:40.352Z,22.33
2022-12-01T08:06:43.079Z,20.60
2022-12-01T08:11:41.873Z,21.67
2022-12-01T08:16:40.673Z,19.38
2022-12-01T08:21:39.683Z,22.08
2022-12-01T08:26:38.520Z,21.40
2022-12-01T08:31:38.229Z,22.40
2022-12-01T08:36:37.409Z,22.63
2022-12-01T08:41:36.177Z,24.65
2022-12-01T08:46:36.307Z,22.38
2022-12-01T08:51:36.395Z,23.02
2022-12-01T08:56:38.429Z,23.70
2022-12-01T09:01:52.860Z,24.20
2022-12-01T09:06:54.107Z,21.73
2022-12-01T09:11:53.513Z,23.25
2022-12-01T09:16:52.388Z,20.77
2022-12-01T09:21:51.367Z,22.20
2022-12-01T09:26:50.476Z,23.27
2022-12-01T09:31:49.365Z,22.30
2022-12-01T09:36:48.734Z,23.52
2022-12-01T09:41:53.093Z,22.58
2022-12-01T09:47:08.736Z,22.33
2022-12-01T09:52:12.700Z,22.02
2022-12-01T09:57:44.819Z,21.77
2022-12-01T10:02:49.351Z,24.40
2022-12-01T10:08:12.157Z,23.02
2022-12-01T10:13:20.177Z,21.15
2022-12-01T10:18:22.140Z,23.52
2022-12-01T10:23:26.866Z,24.10
2022-12-01T10:28:34.788Z,25.00
2022-12-01T10:33:51.280Z,25.20
2022-12-01T10:38:50.128Z,25.65
2022-12-01T10:43:57.812Z,23.60
2022-12-01T10:48:58.951Z,23.05
2022-12-01T10:54:00.398Z,20.48
2022-12-01T10:59:20.833Z,19.67
2022-12-01T11:04:46.293Z,20.23
2022-12-01T11:09:48.763Z,22.52
2022-12-01T11:14:51.073Z,23.65
2022-12-01T11:19:50.007Z,22.25
2022-12-01T11:24:55.150Z,23.40
2022-12-01T11:30:22.510Z,23.40
2022-12-01T11:35:24.274Z,21.85
2022-12-01T11:40:44.822Z,21.02
2022-12-01T11:45:45.031Z,22.38
2022-12-01T11:50:59.530Z,21.85
2022-12-01T11:56:20.833Z,21.67
2022-12-01T12:01:31.824Z,21.50
2022-12-01T12:06:55.253Z,23.88
2022-12-01T12:12:12.635Z,22.02
2022-12-01T12:17:20.400Z,23.80
2022-12-01T12:22:55.870Z,23.38
2022-12-01T12:28:10.191Z,23.95
2022-12-01T12:33:38.509Z,23.70
2022-12-01T12:38:52.168Z,22.13
2022-12-01T12:44:00.148Z,22.80
2022-12-01T12:49:42.672Z,22.20
2022-12-01T12:54:57.815Z,21.60
2022-12-01T13:00:05.079Z,20.38
2022-12-01T13:05:10.581Z,21.52
2022-12-01T13:10:20.658Z,23.77
2022-12-01T13:15:21.320Z,23.40
2022-12-01T13:20:25.191Z,23.27
2022-12-01T13:25:33.151Z,23.77
2022-12-01T13:30:31.982Z,22.10
2022-12-01T13:35:36.023Z,24.80
2022-12-01T13:40:35.002Z,21.20
2022-12-01T13:45:36.951Z,23.42
2022-12-01T13:50:46.024Z,22.77
2022-12-01T13:56:17.357Z,22.73
2022-12-01T14:01:22.866Z,23.75
2022-12-01T14:06:31.223Z,21.75
2022-12-01T14:11:32.388Z,23.67
2022-12-01T14:16:52.000Z,21.70
2022-12-01T14:21:52.008Z,21.25
2022-12-01T14:26:52.773Z,20.90
2022-12-01T14:31:51.491Z,22.40
2022-12-01T14:37:07.953Z,21.98
2022-12-01T14:42:48.806Z,21.42
2022-12-01T14:48:02.747Z,23.52
2022-12-01T14:53:09.190Z,20.83
2022-12-01T14:58:17.044Z,20.63
2022-12-01T15:03:15.876Z,20.38
2022-12-01T15:13:50.626Z,21.30
2022-12-01T15:18:49.982Z,21.88
2022-12-01T15:24:05.440Z,19.75
2022-12-01T15:29:14.082Z,20.58
2022-12-01T15:34:38.207Z,20.50
2022-12-01T15:39:43.287Z,20.80
2022-12-01T15:44:42.065Z,19.60
2022-12-01T15:49:49.250Z,16.77
2022-12-01T15:54:49.453Z,22.02
2022-12-01T15:59:57.348Z,18.35
2022-12-01T16:05:17.993Z,19.75
2022-12-01T16:10:30.471Z,19.90
2022-12-01T16:15:29.317Z,19.42
2022-12-01T16:20:34.096Z,21.27
2022-12-01T16:25:36.757Z,20.77
2022-12-01T16:30:38.749Z,20.35
2022-12-01T16:35:37.643Z,22.13
2022-12-01T16:40:36.438Z,20.17
2022-12-01T16:45:35.158Z,21.10
2022-12-01T16:50:34.003Z,22.45
2022-12-01T16:55:43.563Z,22.08
2022-12-01T17:00:42.442Z,21.75
2022-12-01T17:05:42.036Z,20.52
2022-12-01T17:10:43.026Z,21.27
2022-12-01T17:15:43.337Z,20.42
2022-12-01T17:20:42.236Z,21.95
2022-12-01T17:25:41.869Z,22.58
2022-12-01T17:30:40.842Z,20.17
2022-12-01T17:35:40.152Z,23.00
2022-12-01T17:40:39.162Z,21.63
2022-12-01T17:45:42.062Z,21.98
2022-12-01T17:50:40.976Z,19.63
2022-12-01T17:55:40.106Z,20.92
2022-12-01T18:00:39.125Z,18.98
2022-12-01T18:05:38.495Z,20.33
2022-12-01T18:10:38.102Z,23.10
2022-12-01T18:15:39.857Z,21.00
2022-12-01T18:20:45.236Z,21.80
2022-12-01T18:25:45.348Z,22.25
2022-12-01T18:30:44.167Z,22.75
2022-12-01T18:35:44.347Z,21.17
2022-12-01T18:40:43.156Z,19.33
2022-12-01T18:45:42.047Z,21.63
2022-12-01T18:50:40.827Z,20.40
2022-12-01T18:55:39.656Z,21.38
2022-12-01T19:00:38.464Z,22.17
2022-12-01T19:05:39.115Z,20.95
2022-12-01T19:10:38.156Z,20.58
2022-12-01T19:15:37.584Z,22.05
2022-12-01T19:20:37.945Z,19.92
2022-12-01T19:25:36.825Z,21.42
2022-12-01T19:30:36.046Z,21.17
2022-12-01T19:35:35.047Z,20.88
2022-12-01T19:40:33.957Z,20.40
2022-12-01T19:45:33.755Z,21.20
2022-12-01T19:50:36.664Z,21.20
2022-12-01T19:55:38.580Z,21.27
2022-12-01T20:00:37.362Z,21.92
2022-12-01T20:05:36.255Z,21.17
2022-12-01T20:10:35.032Z,19.05
2022-12-01T20:15:33.748Z,20.20
2022-12-01T20:20:32.448Z,20.67
2022-12-01T20:25:31.229Z,22.10
2022-12-01T20:30:29.988Z,21.77
2022-12-01T20:35:28.780Z,21.85
2022-12-01T20:40:28.934Z,23.13
2022-12-01T20:45:27.714Z,21.73
2022-12-01T20:50:26.580Z,16.45
2022-12-01T20:55:25.395Z,21.02
2022-12-01T21:00:24.112Z,22.58
2022-12-01T21:05:26.602Z,21.88
2022-12-01T21:10:25.700Z,20.55
2022-12-01T21:15:30.039Z,21.00
2022-12-01T21:20:42.920Z,20.25
2022-12-01T21:25:42.684Z,20.92
2022-12-01T21:30:41.708Z,19.83
2022-12-01T21:35:40.511Z,22.60
2022-12-01T21:40:43.946Z,21.35
2022-12-01T21:45:42.733Z,22.67
2022-12-01T21:50:41.584Z,21.25
2022-12-01T21:55:43.516Z,20.98
2022-12-01T22:00:42.595Z,20.90
2022-12-01T22:06:07.092Z,22.00
2022-12-01T22:11:38.536Z,20.67
2022-12-01T22:16:45.575Z,21.73
2022-12-01T22:21:46.807Z,20.30
2022-12-01T22:26:53.423Z,19.27
2022-12-01T22:32:03.631Z,20.33
2022-12-01T22:37:04.712Z,19.95
2022-12-01T22:42:09.675Z,18.98
2022-12-01T22:47:09.923Z,20.52
2022-12-01T22:52:27.526Z,18.70
2022-12-01T22:57:34.987Z,20.45
2022-12-01T23:02:34.836Z,19.98
2022-12-01T23:07:42.478Z,20.13
2022-12-01T23:12:42.210Z,19.75
2022-12-01T23:17:40.978Z,19.80
2022-12-01T23:22:40.165Z,18.63
2022-12-01T23:27:38.946Z,20.48
2022-12-01T23:32:37.655Z,19.10
2022-12-01T23:37:41.684Z,20.05
2022-12-01T23:42:40.626Z,19.05
2022-12-01T23:47:39.518Z,19.45
2022-12-01T23:52:38.313Z,18.25
2022-12-01T23:57:37.542Z,19.42
